Time;durP1;ratioP1;P1;durP2;ratioP2;P2;SDS_P1;SDS_P2;PMS_P1;PMS_P2;Temp;Humidity;BMP_temperature;BMP_pressure;BME280_temperature;BME280_humidity;BME280_pressure;Samples;Min_cycle;Max_cycle;Signal;HPM_P1;HPM_P2
2022/04/16 00:01:09;;;;;;;8.13;5.90;;;14.60;32.60;;;;;;5092408;28;20916;-73
2022/04/16 00:03:35;;;;;;;10.93;5.83;;;14.60;31.50;;;;;;5099019;28;20448;-71
2022/04/16 00:06:01;;;;;;;8.00;6.00;;;14.90;30.70;;;;;;5113149;28;20448;-72
2022/04/16 00:08:28;;;;;;;12.97;6.17;;;14.90;31.00;;;;;;5071380;28;20203;-73
2022/04/16 00:10:54;;;;;;;10.13;6.37;;;14.80;32.20;;;;;;5072120;28;20408;-71
2022/04/16 00:13:21;;;;;;;12.13;5.90;;;14.90;32.80;;;;;;5076954;28;20552;-70
2022/04/16 00:15:54;;;;;;;8.67;6.20;;;14.80;32.40;;;;;;5113028;28;20410;-71
2022/04/16 00:18:20;;;;;;;9.97;7.00;;;14.90;31.40;;;;;;5096371;28;20862;-71
2022/04/16 00:20:51;;;;;;;13.07;6.23;;;15.00;32.20;;;;;;5051999;28;20467;-71
2022/04/16 00:23:19;;;;;;;8.97;6.37;;;14.80;32.40;;;;;;5069259;28;20416;-71
2022/04/16 00:25:48;;;;;;;7.47;5.50;;;14.90;31.10;;;;;;5095273;28;20424;-71
2022/04/16 00:28:14;;;;;;;11.53;6.93;;;14.90;31.20;;;;;;5091883;28;20426;-72
2022/04/16 00:30:40;;;;;;;7.97;5.73;;;14.80;32.30;;;;;;5084966;28;20797;-72
2022/04/16 00:33:14;;;;;;;7.97;6.17;;;14.50;32.30;;;;;;5071693;28;20866;-71
2022/04/16 00:35:43;;;;;;;17.20;6.30;;;14.50;32.80;;;;;;5081799;28;20448;-71
2022/04/16 00:38:09;;;;;;;10.60;6.10;;;14.30;33.80;;;;;;5071594;28;20442;-71
2022/04/16 00:40:35;;;;;;;9.30;6.20;;;14.10;34.30;;;;;;5053238;28;20524;-70
2022/04/16 00:43:02;;;;;;;9.23;6.53;;;14.30;33.00;;;;;;5074320;28;20270;-71
2022/04/16 00:45:29;;;;;;;13.33;6.10;;;14.20;33.30;;;;;;5086000;28;20182;-72
2022/04/16 00:47:56;;;;;;;9.17;6.10;;;14.20;32.80;;;;;;5071636;28;20467;-71
2022/04/16 00:50:21;;;;;;;14.10;6.80;;;14.20;32.80;;;;;;5071764;28;20419;-68
2022/04/16 00:52:49;;;;;;;11.40;6.60;;;14.10;34.10;;;;;;5071180;28;20413;-70
2022/04/16 00:55:14;;;;;;;20.30;6.80;;;14.20;33.50;;;;;;5087985;28;20580;-71
2022/04/16 00:57:42;;;;;;;18.33;6.93;;;14.20;33.10;;;;;;5089576;28;20445;-73
2022/04/16 01:00:09;;;;;;;14.47;6.70;;;14.20;34.40;;;;;;5091329;28;20234;-71
2022/04/16 01:02:37;;;;;;;16.20;6.63;;;14.20;33.60;;;;;;5091528;28;20436;-70
2022/04/16 01:05:04;;;;;;;11.63;6.93;;;14.20;34.40;;;;;;5091598;28;20428;-73
2022/04/16 01:07:31;;;;;;;11.33;7.00;;;13.90;34.30;;;;;;5094902;28;21033;-70
2022/04/16 01:09:56;;;;;;;12.00;7.10;;;13.90;34.80;;;;;;5091605;28;20503;-74
2022/04/16 01:12:22;;;;;;;9.10;6.40;;;14.10;33.70;;;;;;5080074;28;20545;-70
2022/04/16 01:14:50;;;;;;;10.67;6.83;;;14.10;34.20;;;;;;5073179;28;20703;-70
2022/04/16 01:17:16;;;;;;;9.67;6.63;;;14.20;33.20;;;;;;5071206;28;20423;-71
2022/04/16 01:19:42;;;;;;;7.77;6.00;;;14.20;34.10;;;;;;5070298;28;20461;-70
2022/04/16 01:22:12;;;;;;;16.27;7.10;;;14.00;34.40;;;;;;5069709;28;20476;-71
2022/04/16 01:24:46;;;;;;;9.20;6.20;;;13.90;36.00;;;;;;5073434;28;20182;-70
2022/04/16 01:27:11;;;;;;;8.43;6.37;;;14.00;34.30;;;;;;5077050;28;20483;-70
2022/04/16 01:29:37;;;;;;;13.67;7.30;;;13.90;34.70;;;;;;5072121;28;20865;-71
2022/04/16 01:32:03;;;;;;;10.30;7.20;;;13.80;35.20;;;;;;5083161;28;20446;-73
2022/04/16 01:34:29;;;;;;;9.23;6.27;;;13.80;34.60;;;;;;5091314;28;20196;-73
2022/04/16 01:36:57;;;;;;;12.87;7.67;;;13.60;35.70;;;;;;5090924;28;20512;-72
2022/04/16 01:39:22;;;;;;;10.70;6.90;;;13.50;36.80;;;;;;5083389;28;20514;-70
2022/04/16 01:41:49;;;;;;;9.90;7.00;;;13.40;36.50;;;;;;5089731;28;20420;-70
2022/04/16 01:44:15;;;;;;;10.43;7.23;;;13.40;35.80;;;;;;5062050;28;20217;-70
2022/04/16 01:46:40;;;;;;;13.17;7.17;;;13.50;35.60;;;;;;5073269;28;20462;-70
2022/04/16 01:49:06;;;;;;;10.40;6.97;;;13.30;36.70;;;;;;5071101;28;20198;-70
2022/04/16 01:51:32;;;;;;;11.43;7.60;;;13.20;36.90;;;;;;5072426;28;20177;-71
2022/04/16 01:53:58;;;;;;;10.27;7.10;;;13.40;37.00;;;;;;5088284;28;20531;-71
2022/04/16 01:56:24;;;;;;;15.13;8.20;;;13.00;38.30;;;;;;5082706;28;20214;-71
2022/04/16 01:58:49;;;;;;;14.90;7.33;;;13.10;37.30;;;;;;5094855;28;20455;-69
2022/04/16 02:01:15;;;;;;;11.87;7.07;;;13.30;38.30;;;;;;5094909;28;20173;-68
2022/04/16 02:03:41;;;;;;;15.00;7.93;;;13.10;37.20;;;;;;5094970;28;20175;-68
2022/04/16 02:06:06;;;;;;;11.57;6.90;;;13.20;36.40;;;;;;5090038;28;20183;-68
2022/04/16 02:08:32;;;;;;;11.67;7.77;;;13.70;36.40;;;;;;5056561;28;20203;-68
2022/04/16 02:10:58;;;;;;;11.87;7.40;;;13.40;35.50;;;;;;5074114;28;20650;-69
2022/04/16 02:13:23;;;;;;;14.60;8.00;;;13.40;36.00;;;;;;5074431;28;20202;-69
2022/04/16 02:15:49;;;;;;;17.67;7.60;;;13.40;35.50;;;;;;5091970;28;20174;-72
2022/04/16 02:18:15;;;;;;;11.60;7.60;;;13.30;35.40;;;;;;5115097;28;20229;-69
2022/04/16 02:20:41;;;;;;;14.20;7.83;;;13.20;35.30;;;;;;5109881;28;20179;-70
2022/04/16 02:23:09;;;;;;;11.70;7.63;;;13.50;36.40;;;;;;5074341;28;20166;-68
2022/04/16 02:25:35;;;;;;;11.17;7.97;;;13.00;38.50;;;;;;5094425;28;20415;-69
2022/04/16 02:28:01;;;;;;;9.60;7.00;;;12.70;38.50;;;;;;5113868;28;20443;-69
2022/04/16 02:30:28;;;;;;;12.93;7.73;;;12.80;38.00;;;;;;5114999;28;20408;-69
2022/04/16 02:32:54;;;;;;;12.73;7.47;;;12.90;36.90;;;;;;5114635;28;20169;-69
2022/04/16 02:35:21;;;;;;;12.03;7.03;;;13.00;36.60;;;;;;5085342;28;20469;-69
2022/04/16 02:37:47;;;;;;;10.80;7.43;;;13.10;36.80;;;;;;5092888;28;20234;-71
2022/04/16 02:40:13;;;;;;;10.53;6.70;;;13.30;36.70;;;;;;5074081;28;20448;-71
2022/04/16 02:42:42;;;;;;;13.87;7.97;;;13.00;37.70;;;;;;5073989;28;20199;-69
2022/04/16 02:47:56;;;;;;;10.90;7.30;;;13.40;36.00;;;;;;5090824;28;20451;-71
2022/04/16 02:50:24;;;;;;;10.80;7.10;;;13.30;35.90;;;;;;5114608;28;21197;-69
2022/04/16 02:52:51;;;;;;;11.20;6.67;;;11.80;35.70;;;;;;5111038;28;20422;-68
2022/04/16 02:55:16;;;;;;;9.70;7.23;;;13.30;36.10;;;;;;5093849;28;21017;-68
2022/04/16 02:57:43;;;;;;;18.00;7.63;;;13.50;37.10;;;;;;5094880;28;20432;-68
2022/04/16 03:00:13;;;;;;;11.07;6.43;;;13.10;36.30;;;;;;5074373;28;20179;-68
2022/04/16 03:02:41;;;;;;;13.90;7.53;;;13.20;35.30;;;;;;5072483;28;20421;-71
2022/04/16 03:05:08;;;;;;;11.43;7.40;;;13.30;35.60;;;;;;5074635;28;20937;-68
2022/04/16 03:07:35;;;;;;;12.27;7.10;;;13.30;36.20;;;;;;5072749;28;20900;-68
2022/04/16 03:10:02;;;;;;;13.60;7.27;;;13.20;36.50;;;;;;5090796;28;20420;-68
2022/04/16 03:12:28;;;;;;;12.20;8.13;;;13.60;35.80;;;;;;5074594;28;20843;-69
2022/04/16 03:17:39;;;;;;;13.47;7.90;;;12.80;35.60;;;;;;5093546;28;20454;-68
2022/04/16 03:20:06;;;;;;;11.60;7.67;;;12.70;36.30;;;;;;5101395;28;20435;-69
2022/04/16 03:22:33;;;;;;;12.60;7.40;;;12.60;37.00;;;;;;5113524;28;20942;-69
2022/04/16 03:25:03;;;;;;;9.33;7.10;;;12.70;36.80;;;;;;5108875;28;20429;-68
2022/04/16 03:27:29;;;;;;;12.07;7.33;;;12.70;37.10;;;;;;5085477;28;20899;-68
2022/04/16 03:29:54;;;;;;;10.30;7.50;;;12.70;36.60;;;;;;5094103;28;20416;-68
2022/04/16 03:32:20;;;;;;;10.00;6.63;;;12.60;37.40;;;;;;5093221;28;20189;-69
2022/04/16 03:34:46;;;;;;;11.20;7.23;;;12.40;36.70;;;;;;5087009;28;20663;-71
2022/04/16 03:37:12;;;;;;;13.07;8.27;;;12.50;37.30;;;;;;5054832;28;20176;-71
2022/04/16 03:39:38;;;;;;;11.70;7.90;;;12.50;38.20;;;;;;5072831;28;20445;-68
2022/04/16 03:42:04;;;;;;;11.50;7.23;;;12.50;37.50;;;;;;5091591;28;20179;-69
2022/04/16 03:44:29;;;;;;;17.43;7.07;;;12.50;37.40;;;;;;5073764;28;20276;-68
2022/04/16 03:46:55;;;;;;;11.63;7.13;;;12.40;38.30;;;;;;5072797;28;20429;-69
2022/04/16 03:49:21;;;;;;;10.40;7.30;;;12.30;38.10;;;;;;5072842;28;20205;-69
2022/04/16 03:51:47;;;;;;;10.20;7.13;;;12.20;37.80;;;;;;5084654;28;20184;-69
2022/04/16 03:59:59;;;;;;;14.93;7.30;;;12.30;37.40;;;;;;5092227;28;20860;-69
2022/04/16 04:02:25;;;;;;;12.10;7.50;;;12.20;37.80;;;;;;5093805;28;20472;-69
2022/04/16 04:04:51;;;;;;;11.20;7.20;;;12.10;38.00;;;;;;5098199;28;20459;-70
2022/04/16 04:07:17;;;;;;;10.10;7.07;;;12.10;38.50;;;;;;5085722;28;20431;-69
2022/04/16 04:09:44;;;;;;;11.07;7.20;;;12.10;38.10;;;;;;5072149;28;20997;-71
2022/04/16 04:12:14;;;;;;;11.33;7.13;;;12.20;37.30;;;;;;5072034;28;20432;-68
2022/04/16 04:14:40;;;;;;;15.23;7.70;;;11.90;39.10;;;;;;5090791;28;20550;-68
2022/04/16 04:17:07;;;;;;;10.70;6.97;;;11.70;39.60;;;;;;5079390;28;20421;-67
2022/04/16 04:19:35;;;;;;;12.80;6.80;;;11.80;39.30;;;;;;5074626;28;20433;-68
2022/04/16 04:22:06;;;;;;;10.03;7.50;;;11.60;40.20;;;;;;5074068;28;20802;-69
2022/04/16 04:24:32;;;;;;;10.23;7.30;;;11.60;41.40;;;;;;5092695;28;20480;-69
2022/04/16 04:26:59;;;;;;;10.43;6.95;;;11.90;39.80;;;;;;5082847;28;20958;-69
2022/04/16 04:29:26;;;;;;;13.60;7.25;;;11.80;40.40;;;;;;5078612;28;20370;-69
2022/04/16 04:31:52;;;;;;;13.27;7.87;;;12.20;39.70;;;;;;5071501;28;20209;-70
2022/04/16 04:34:17;;;;;;;13.53;7.47;;;12.20;38.70;;;;;;5076505;28;20878;-72
2022/04/16 04:36:43;;;;;;;10.97;6.97;;;12.10;40.20;;;;;;5104272;28;20420;-68
2022/04/16 04:39:09;;;;;;;15.80;7.37;;;12.20;40.10;;;;;;5074336;28;20253;-68
2022/04/16 04:41:34;;;;;;;10.30;7.13;;;12.10;40.10;;;;;;5072045;28;20176;-69
2022/04/16 04:44:00;;;;;;;9.07;7.20;;;12.10;40.60;;;;;;5070756;28;20658;-69
2022/04/16 04:46:25;;;;;;;10.60;7.70;;;12.20;39.00;;;;;;5076229;28;20178;-73
2022/04/16 04:48:51;;;;;;;15.20;7.30;;;12.30;40.30;;;;;;5070440;28;20588;-69
2022/04/16 04:51:17;;;;;;;15.53;7.53;;;13.80;40.40;;;;;;5070618;28;20206;-69
2022/04/16 04:53:42;;;;;;;10.23;6.70;;;12.90;39.20;;;;;;5071580;28;20209;-69
2022/04/16 04:56:08;;;;;;;13.20;7.80;;;12.40;38.20;;;;;;5084742;28;20209;-70
2022/04/16 04:58:34;;;;;;;9.53;6.37;;;12.50;37.30;;;;;;5083804;28;20716;-69
2022/04/16 05:00:59;;;;;;;15.10;6.97;;;12.50;37.30;;;;;;5083646;28;20179;-69
2022/04/16 05:03:25;;;;;;;14.33;7.47;;;12.70;39.00;;;;;;5071484;28;20665;-71
2022/04/16 05:05:50;;;;;;;11.37;6.97;;;12.70;38.10;;;;;;5079512;28;20541;-70
2022/04/16 05:08:16;;;;;;;8.83;6.60;;;12.80;36.80;;;;;;5107543;28;20197;-71
2022/04/16 05:10:42;;;;;;;16.80;6.87;;;12.60;36.60;;;;;;5093325;28;20186;-70
2022/04/16 05:13:07;;;;;;;11.30;7.13;;;13.00;37.40;;;;;;5089910;28;20182;-70
2022/04/16 05:15:33;;;;;;;10.70;6.50;;;12.80;37.50;;;;;;5071053;28;20536;-71
2022/04/16 05:17:59;;;;;;;10.60;7.13;;;13.10;37.90;;;;;;5094304;28;20284;-70
2022/04/16 05:20:24;;;;;;;9.20;6.70;;;12.90;37.70;;;;;;5093547;28;20182;-71
2022/04/16 05:22:50;;;;;;;11.50;7.00;;;12.90;36.00;;;;;;5082283;28;20270;-70
2022/04/16 05:25:16;;;;;;;11.07;7.07;;;13.00;36.10;;;;;;5089461;28;20174;-70
2022/04/16 05:27:42;;;;;;;10.80;7.00;;;13.10;34.70;;;;;;5087150;28;20440;-71
2022/04/16 05:30:21;;;;;;;12.57;6.97;;;13.20;35.90;;;;;;5094453;28;20569;-71
2022/04/16 05:32:47;;;;;;;9.07;6.73;;;13.30;35.30;;;;;;5075087;28;20159;-70
2022/04/16 05:35:13;;;;;;;11.30;6.83;;;13.20;35.30;;;;;;5075008;28;20449;-71
2022/04/16 05:37:39;;;;;;;10.67;6.90;;;13.10;34.60;;;;;;5075036;28;20409;-72
2022/04/16 05:40:06;;;;;;;10.27;7.20;;;13.10;33.90;;;;;;5093896;28;20250;-70
2022/04/16 05:42:32;;;;;;;11.67;6.63;;;13.30;33.60;;;;;;5093344;28;20186;-73
2022/04/16 05:45:02;;;;;;;12.90;7.20;;;13.10;33.30;;;;;;5095024;28;20427;-73
2022/04/16 05:47:28;;;;;;;14.50;6.60;;;13.00;34.80;;;;;;5095360;28;20195;-73
2022/04/16 05:49:53;;;;;;;12.50;6.43;;;13.20;33.70;;;;;;5095168;28;20441;-73
2022/04/16 05:52:22;;;;;;;9.60;6.50;;;12.90;35.10;;;;;;5081526;28;20945;-73
2022/04/16 05:54:48;;;;;;;9.57;6.63;;;13.10;34.10;;;;;;5074763;28;20326;-73
2022/04/16 05:57:14;;;;;;;9.73;6.93;;;12.90;34.50;;;;;;5074576;28;20401;-73
2022/04/16 05:59:40;;;;;;;13.97;6.97;;;13.00;35.20;;;;;;5092359;28;20493;-73
2022/04/16 06:02:06;;;;;;;19.50;6.90;;;13.00;34.70;;;;;;5070673;28;20776;-74
2022/04/16 06:04:31;;;;;;;9.70;7.27;;;13.00;35.10;;;;;;5115267;28;20170;-73
2022/04/16 06:06:57;;;;;;;14.80;7.20;;;13.20;34.30;;;;;;5115057;28;20414;-71
2022/04/16 06:09:23;;;;;;;11.10;6.70;;;13.40;33.50;;;;;;5113561;28;20206;-72
2022/04/16 06:11:49;;;;;;;11.30;7.23;;;13.60;34.50;;;;;;5095571;28;20178;-72
2022/04/16 06:14:15;;;;;;;9.20;6.73;;;13.70;33.40;;;;;;5073934;28;20272;-71
2022/04/16 06:16:40;;;;;;;9.00;6.70;;;13.70;33.30;;;;;;5074337;28;20893;-71
2022/04/16 06:19:06;;;;;;;11.30;7.10;;;13.80;32.20;;;;;;5075397;28;20443;-73
2022/04/16 06:21:31;;;;;;;11.77;6.70;;;13.60;32.80;;;;;;5105121;28;20174;-71
2022/04/16 06:24:00;;;;;;;9.70;7.00;;;13.80;32.90;;;;;;5114776;28;20641;-71
2022/04/16 06:26:26;;;;;;;9.10;6.70;;;14.00;33.10;;;;;;5114621;28;20707;-73
2022/04/16 06:28:52;;;;;;;18.20;6.53;;;14.10;31.70;;;;;;5085538;28;20809;-73
2022/04/16 06:31:17;;;;;;;10.03;6.70;;;14.20;31.50;;;;;;5082906;28;20209;-72
2022/04/16 06:33:44;;;;;;;10.13;7.10;;;14.20;32.00;;;;;;5094217;28;21024;-72
2022/04/16 06:36:09;;;;;;;10.27;6.47;;;14.60;31.60;;;;;;5093905;28;20180;-71
2022/04/16 06:38:35;;;;;;;10.50;6.63;;;14.50;32.70;;;;;;5092768;28;20812;-72
2022/04/16 06:41:00;;;;;;;10.13;7.13;;;14.70;30.90;;;;;;5083457;28;20179;-73
2022/04/16 06:43:26;;;;;;;13.23;7.70;;;14.80;30.50;;;;;;5102964;28;20187;-71
2022/04/16 06:45:52;;;;;;;10.20;7.00;;;14.80;30.20;;;;;;5082595;28;20184;-72
2022/04/16 06:48:17;;;;;;;9.40;6.40;;;14.90;29.80;;;;;;5089250;28;20242;-71
2022/04/16 06:50:43;;;;;;;11.60;7.37;;;15.00;29.50;;;;;;5091511;28;20245;-77
2022/04/16 06:53:09;;;;;;;11.27;7.60;;;14.90;29.80;;;;;;5082137;28;20639;-71
2022/04/16 06:55:35;;;;;;;8.67;6.50;;;14.50;29.50;;;;;;5093837;28;20472;-71
2022/04/16 06:58:01;;;;;;;11.50;7.10;;;14.40;30.50;;;;;;5093256;28;20592;-71
2022/04/16 07:00:26;;;;;;;18.33;7.40;;;14.40;30.80;;;;;;5085805;28;20232;-71
2022/04/16 07:02:52;;;;;;;11.57;7.40;;;14.70;30.00;;;;;;5077057;28;20265;-72
2022/04/16 07:05:18;;;;;;;13.50;7.73;;;14.60;30.90;;;;;;5092198;28;20661;-72
2022/04/16 07:07:43;;;;;;;11.90;7.83;;;14.10;33.20;;;;;;5093599;28;20193;-74
2022/04/16 07:10:11;;;;;;;10.40;7.40;;;14.20;30.80;;;;;;5092961;28;20692;-71
2022/04/16 07:12:37;;;;;;;13.43;7.13;;;14.10;31.00;;;;;;5091371;28;20640;-71
2022/04/16 07:15:03;;;;;;;13.20;7.83;;;14.40;30.90;;;;;;5104464;28;20468;-70
2022/04/16 07:17:29;;;;;;;10.77;7.70;;;14.60;32.40;;;;;;5079238;28;20422;-71
2022/04/16 07:19:55;;;;;;;10.50;7.13;;;14.80;30.30;;;;;;5093367;28;20461;-71
2022/04/16 07:22:20;;;;;;;12.20;7.43;;;14.40;31.50;;;;;;5081279;28;20525;-72
2022/04/16 07:24:48;;;;;;;10.63;7.40;;;14.60;32.90;;;;;;5081296;28;20179;-71
2022/04/16 07:27:14;;;;;;;12.70;7.80;;;14.80;30.20;;;;;;5094898;28;20178;-71
2022/04/16 07:29:40;;;;;;;10.47;7.80;;;14.90;30.10;;;;;;5083202;28;20448;-73
2022/04/16 07:32:06;;;;;;;17.23;8.10;;;14.00;31.60;;;;;;5075147;28;20578;-70
2022/04/16 07:34:32;;;;;;;16.33;8.33;;;14.50;31.60;;;;;;5115380;28;20234;-69
2022/04/16 07:36:57;;;;;;;14.33;8.10;;;15.00;31.30;;;;;;5102576;28;20436;-70
2022/04/16 07:39:23;;;;;;;14.53;7.33;;;14.20;31.30;;;;;;5073909;28;20893;-70
2022/04/16 07:41:51;;;;;;;13.20;7.77;;;14.60;31.80;;;;;;5072409;28;20173;-71
2022/04/16 07:44:17;;;;;;;11.13;7.80;;;15.30;30.30;;;;;;5085709;28;20174;-73
2022/04/16 07:46:42;;;;;;;11.40;7.90;;;15.40;29.50;;;;;;5093231;28;20425;-76
2022/04/16 07:49:08;;;;;;;12.33;7.67;;;14.80;30.50;;;;;;5087723;28;20796;-72
2022/04/16 07:51:34;;;;;;;13.80;7.60;;;15.00;30.20;;;;;;5091296;28;20678;-72
2022/04/16 07:54:00;;;;;;;12.60;8.43;;;15.30;29.90;;;;;;5092616;28;20836;-71
2022/04/16 07:56:26;;;;;;;12.40;7.90;;;15.50;29.00;;;;;;5088537;28;20256;-72
2022/04/16 07:58:54;;;;;;;14.13;8.50;;;15.90;28.20;;;;;;5092649;28;20667;-71
2022/04/16 08:01:19;;;;;;;10.97;7.93;;;16.00;28.30;;;;;;5080064;28;20436;-71
2022/04/16 08:03:45;;;;;;;17.10;7.77;;;15.60;28.70;;;;;;5084265;28;20437;-70
2022/04/16 08:06:11;;;;;;;14.47;7.97;;;15.80;28.40;;;;;;5077857;28;20179;-73
2022/04/16 08:08:37;;;;;;;11.53;7.37;;;16.30;27.80;;;;;;5066984;28;20246;-71
2022/04/16 08:11:03;;;;;;;12.33;7.80;;;16.50;27.60;;;;;;5074037;28;20671;-71
2022/04/16 08:13:28;;;;;;;11.30;7.63;;;16.40;28.50;;;;;;5091287;28;20409;-70
2022/04/16 08:15:54;;;;;;;11.27;8.40;;;16.30;27.80;;;;;;5090688;28;20417;-69
2022/04/16 08:18:20;;;;;;;10.57;7.70;;;16.30;29.40;;;;;;5101823;28;20284;-70
2022/04/16 08:20:45;;;;;;;11.40;8.30;;;15.90;27.90;;;;;;5112379;28;20663;-70
2022/04/16 08:23:13;;;;;;;11.60;8.10;;;16.30;28.00;;;;;;5080363;28;20179;-73
2022/04/16 08:28:05;;;;;;;10.80;7.70;;;15.50;28.10;;;;;;5082201;28;20446;-71
2022/04/16 08:30:32;;;;;;;11.63;7.67;;;15.40;28.20;;;;;;5091886;28;20457;-71
2022/04/16 08:32:58;;;;;;;10.73;7.50;;;15.50;28.30;;;;;;5090821;28;20425;-70
2022/04/16 08:35:24;;;;;;;14.73;8.10;;;15.20;28.70;;;;;;5075452;28;20455;-71
2022/04/16 08:37:50;;;;;;;14.03;8.10;;;14.80;28.90;;;;;;5073298;28;20785;-72
2022/04/16 08:40:17;;;;;;;14.03;8.73;;;15.40;28.60;;;;;;5080965;28;20876;-73
2022/04/16 08:42:48;;;;;;;11.20;7.50;;;15.20;29.00;;;;;;5071932;28;20439;-71
2022/04/16 08:45:14;;;;;;;19.53;8.30;;;15.50;29.00;;;;;;5072654;28;20438;-72
2022/04/16 08:47:41;;;;;;;11.80;8.37;;;15.20;28.50;;;;;;5074222;28;20417;-71
2022/04/16 08:50:09;;;;;;;18.87;8.00;;;15.00;28.30;;;;;;5095735;28;20425;-70
2022/04/16 08:52:36;;;;;;;14.53;8.37;;;15.30;28.20;;;;;;5090627;28;20928;-71
2022/04/16 08:55:08;;;;;;;16.17;8.07;;;15.50;28.00;;;;;;5090058;28;20461;-72
2022/04/16 08:57:33;;;;;;;11.57;8.53;;;15.50;28.30;;;;;;5078914;28;20418;-70
2022/04/16 08:59:59;;;;;;;12.77;8.33;;;15.60;27.80;;;;;;5079388;28;20432;-71
2022/04/16 09:02:27;;;;;;;12.47;8.87;;;15.70;28.30;;;;;;5084502;28;20781;-71
2022/04/16 09:05:02;;;;;;;13.27;9.03;;;15.90;29.30;;;;;;5090767;28;20550;-71
2022/04/16 09:07:27;;;;;;;13.97;8.93;;;15.90;27.70;;;;;;5085465;28;20432;-70
2022/04/16 09:09:53;;;;;;;12.90;9.00;;;16.30;28.50;;;;;;5106163;28;20430;-71
2022/04/16 09:12:19;;;;;;;12.10;9.03;;;16.40;27.50;;;;;;5095454;28;20183;-71
2022/04/16 09:14:46;;;;;;;15.27;7.90;;;16.30;27.40;;;;;;5091379;28;20210;-70
2022/04/16 09:17:18;;;;;;;13.10;8.90;;;16.10;27.00;;;;;;5090843;28;20405;-70
2022/04/16 09:19:53;;;;;;;13.37;9.27;;;16.40;26.60;;;;;;5084161;28;20447;-70
2022/04/16 09:22:31;;;;;;;13.23;8.23;;;16.30;26.40;;;;;;5090785;28;20429;-70
2022/04/16 09:24:57;;;;;;;12.73;9.00;;;16.60;26.10;;;;;;5091369;28;20927;-70
2022/04/16 09:27:22;;;;;;;12.20;8.70;;;16.60;26.80;;;;;;5091615;28;20442;-70
2022/04/16 09:29:48;;;;;;;10.30;8.10;;;17.00;26.50;;;;;;5096470;28;20177;-71
2022/04/16 09:32:24;;;;;;;10.90;8.30;;;17.40;25.60;;;;;;5092700;28;20225;-71
2022/04/16 09:34:51;;;;;;;17.87;8.07;;;17.20;24.80;;;;;;5091145;28;20220;-71
2022/04/16 09:37:17;;;;;;;11.73;8.90;;;17.00;26.00;;;;;;5090272;28;20414;-71
2022/04/16 09:39:42;;;;;;;12.53;8.47;;;17.00;26.80;;;;;;5090690;28;20826;-71
2022/04/16 09:42:08;;;;;;;12.00;7.80;;;17.60;24.30;;;;;;5108764;28;20607;-71
2022/04/16 09:44:34;;;;;;;12.40;8.60;;;17.20;24.80;;;;;;5071172;28;20179;-70
2022/04/16 09:47:02;;;;;;;11.73;8.03;;;16.90;25.20;;;;;;5071753;28;20671;-71
2022/04/16 09:49:31;;;;;;;10.00;7.97;;;17.20;25.00;;;;;;5071048;28;20205;-71
2022/04/16 09:52:00;;;;;;;11.77;8.07;;;15.80;23.10;;;;;;5095090;28;20422;-70
2022/04/16 09:54:27;;;;;;;11.97;7.17;;;17.60;24.30;;;;;;5111372;28;20884;-70
2022/04/16 09:56:59;;;;;;;12.87;7.20;;;17.50;24.30;;;;;;5078762;28;20427;-70
2022/04/16 09:59:31;;;;;;;10.10;7.40;;;17.50;24.20;;;;;;5070906;28;20439;-71
2022/04/16 10:01:56;;;;;;;10.27;7.77;;;16.70;24.60;;;;;;5083575;28;20413;-68
2022/04/16 10:04:22;;;;;;;10.50;7.47;;;15.60;25.70;;;;;;5111205;28;20416;-71
2022/04/16 10:06:49;;;;;;;12.30;7.27;;;15.30;26.40;;;;;;5088354;28;20218;-70
2022/04/16 10:09:17;;;;;;;12.67;7.80;;;16.00;25.40;;;;;;5070766;28;20203;-71
2022/04/16 10:14:54;;;;;;;11.90;7.27;;;16.80;25.90;;;;;;5092095;28;20455;-70
2022/04/16 10:17:36;;;;;;;9.80;7.27;;;16.80;24.90;;;;;;5094931;28;20403;-70
2022/04/16 10:20:12;;;;;;;9.90;7.53;;;17.30;24.20;;;;;;5094659;28;21006;-70
2022/04/16 10:22:38;;;;;;;9.60;7.80;;;16.70;26.00;;;;;;5076222;28;20408;-71
2022/04/16 10:25:05;;;;;;;11.10;7.50;;;16.50;25.50;;;;;;5114307;28;20434;-70
2022/04/16 10:27:32;;;;;;;16.37;9.10;;;16.50;26.10;;;;;;5110951;28;20433;-72
2022/04/16 10:30:13;;;;;;;11.03;7.50;;;16.70;25.00;;;;;;5094654;28;20420;-70
2022/04/16 10:32:39;;;;;;;10.13;7.10;;;16.30;24.70;;;;;;5079917;28;20508;-70
2022/04/16 10:35:12;;;;;;;8.77;6.53;;;15.80;26.00;;;;;;5109254;28;20455;-71
2022/04/16 10:37:39;;;;;;;11.53;6.10;;;15.90;25.50;;;;;;5114660;28;20411;-70
2022/04/16 10:40:18;;;;;;;9.60;7.53;;;16.50;25.20;;;;;;5114839;28;21122;-70
2022/04/16 10:42:57;;;;;;;15.00;8.50;;;16.60;24.50;;;;;;5114804;28;20407;-70
2022/04/16 10:45:23;;;;;;;9.33;6.83;;;16.30;24.50;;;;;;5112906;28;20444;-70
2022/04/16 10:47:51;;;;;;;11.90;7.60;;;16.20;25.10;;;;;;5105925;28;20440;-71
2022/04/16 10:50:18;;;;;;;12.80;8.00;;;15.70;25.90;;;;;;5092266;28;20421;-70
2022/04/16 10:52:56;;;;;;;12.50;7.43;;;16.10;25.80;;;;;;5083724;28;20427;-71
2022/04/16 10:55:32;;;;;;;10.80;7.60;;;16.60;26.10;;;;;;5090120;28;20462;-70
2022/04/16 10:58:05;;;;;;;10.83;8.07;;;16.50;24.70;;;;;;5120005;28;20505;-70
2022/04/16 11:00:45;;;;;;;13.43;7.77;;;16.60;26.00;;;;;;5116201;28;20839;-70
2022/04/16 11:03:17;;;;;;;10.57;7.33;;;17.00;25.30;;;;;;5089056;28;20424;-70
2022/04/16 11:05:44;;;;;;;18.47;7.80;;;17.00;25.00;;;;;;5090463;28;20429;-70
2022/04/16 11:08:14;;;;;;;13.27;7.37;;;17.40;24.80;;;;;;5080619;28;20554;-73
2022/04/16 11:10:41;;;;;;;9.60;7.50;;;17.70;24.00;;;;;;5093525;28;20992;-73
2022/04/16 11:13:10;;;;;;;9.53;7.47;;;18.10;23.30;;;;;;5087866;28;20443;-71
2022/04/16 11:15:35;;;;;;;12.17;8.50;;;18.10;23.60;;;;;;5075326;28;20470;-70
2022/04/16 11:18:03;;;;;;;18.23;8.43;;;17.80;23.30;;;;;;5100823;28;21152;-70
2022/04/16 11:20:29;;;;;;;10.17;7.67;;;17.30;24.10;;;;;;5093655;28;20175;-70
2022/04/16 11:22:55;;;;;;;14.53;8.00;;;17.20;24.60;;;;;;5091896;28;20418;-70
2022/04/16 11:34:14;;;;;;;11.10;7.83;;;17.10;25.00;;;;;;5092633;28;20405;-70
2022/04/16 11:36:28;;;;;;;11.90;7.17;;;18.10;23.00;;;;;;5073171;28;20465;-72
2022/04/16 11:38:53;;;;;;;9.70;7.10;;;17.50;22.50;;;;;;5088026;28;20953;-71
2022/04/16 11:41:19;;;;;;;9.60;7.33;;;17.60;23.20;;;;;;5093142;28;20179;-71
2022/04/16 11:43:51;;;;;;;10.80;7.30;;;17.50;23.30;;;;;;5092118;28;20182;-72
2022/04/16 11:46:17;;;;;;;8.03;6.20;;;17.30;23.20;;;;;;5072856;28;20185;-71
2022/04/16 11:48:47;;;;;;;7.43;5.83;;;16.70;24.10;;;;;;5085052;28;20442;-72
2022/04/16 11:51:14;;;;;;;8.30;6.43;;;17.00;23.10;;;;;;5113176;28;20406;-71
2022/04/16 11:54:06;;;;;;;10.30;7.23;;;17.60;23.50;;;;;;5113094;28;20414;-71
2022/04/16 11:56:32;;;;;;;9.17;7.33;;;18.50;21.60;;;;;;5083917;28;20451;-72
2022/04/16 11:58:57;;;;;;;9.23;6.83;;;18.70;22.00;;;;;;5086085;28;20452;-72
2022/04/16 12:01:24;;;;;;;9.30;7.30;;;18.70;23.50;;;;;;5086001;28;20182;-72
2022/04/16 12:03:56;;;;;;;11.30;7.70;;;19.10;23.80;;;;;;5088842;28;20185;-71
2022/04/16 12:06:21;;;;;;;10.23;7.27;;;19.20;20.80;;;;;;5082635;28;20558;-71
2022/04/16 12:08:47;;;;;;;9.10;7.47;;;19.20;20.50;;;;;;5078047;28;20527;-71
2022/04/16 12:11:13;;;;;;;10.77;8.20;;;19.30;20.20;;;;;;5088858;28;20201;-72
2022/04/16 12:13:43;;;;;;;10.97;7.57;;;18.90;21.20;;;;;;5081893;28;20194;-70
2022/04/16 12:16:11;;;;;;;10.70;7.83;;;18.70;22.90;;;;;;5083414;28;20539;-70
2022/04/16 12:18:48;;;;;;;9.23;7.10;;;18.90;22.90;;;;;;5085911;28;20514;-70
2022/04/16 12:21:16;;;;;;;11.60;7.80;;;18.90;22.10;;;;;;5084056;28;20424;-76
2022/04/16 12:23:44;;;;;;;11.27;7.80;;;18.70;22.60;;;;;;5091317;28;20423;-71
2022/04/16 12:26:11;;;;;;;10.57;7.80;;;18.80;21.70;;;;;;5080534;28;20448;-75
2022/04/16 12:28:43;;;;;;;10.63;7.80;;;18.50;21.70;;;;;;5082310;28;20430;-70
2022/04/16 12:31:10;;;;;;;10.17;8.03;;;18.40;22.10;;;;;;5086614;28;20422;-71
2022/04/16 12:33:36;;;;;;;12.27;8.17;;;18.10;22.60;;;;;;5085410;28;20416;-72
2022/04/16 12:36:02;;;;;;;12.57;8.80;;;17.30;22.70;;;;;;5091619;28;20417;-72
2022/04/16 12:38:27;;;;;;;9.07;6.77;;;17.40;23.80;;;;;;5091169;28;20452;-71
2022/04/16 12:41:08;;;;;;;11.27;7.90;;;18.30;22.00;;;;;;5092034;28;20640;-71
2022/04/16 12:43:34;;;;;;;8.93;6.60;;;19.50;20.60;;;;;;5081308;28;20184;-73
2022/04/16 12:46:00;;;;;;;8.50;6.40;;;20.50;19.70;;;;;;5080141;28;20456;-73
2022/04/16 12:48:25;;;;;;;10.03;6.37;;;19.90;20.30;;;;;;5091863;28;20522;-72
2022/04/16 12:50:51;;;;;;;7.73;5.70;;;16.70;16.30;;;;;;5075789;28;20179;-72
2022/04/16 12:53:17;;;;;;;7.17;5.93;;;20.20;20.10;;;;;;5091576;28;20182;-72
2022/04/16 12:55:42;;;;;;;8.33;6.07;;;20.20;18.80;;;;;;5112218;28;20193;-72
2022/04/16 12:58:08;;;;;;;13.73;6.40;;;19.20;20.30;;;;;;5101437;28;20199;-72
2022/04/16 13:00:34;;;;;;;10.13;6.77;;;19.10;20.40;;;;;;5091706;28;20545;-72
2022/04/16 13:03:00;;;;;;;9.80;6.83;;;19.00;21.20;;;;;;5090606;28;20185;-72